createdAt,value
2022-08-07T00:01:43.033Z,6.67
2022-08-07T00:03:55.296Z,7.45
2022-08-07T00:06:33.066Z,6.65
2022-08-07T00:09:17.219Z,6.60
2022-08-07T00:11:55.787Z,7.68
2022-08-07T00:14:30.175Z,6.40
2022-08-07T00:16:59.909Z,7.28
2022-08-07T00:20:00.668Z,7.45
2022-08-07T00:22:34.555Z,6.60
2022-08-07T00:25:03.121Z,7.38
2022-08-07T00:27:51.870Z,6.43
2022-08-07T00:30:26.318Z,7.85
2022-08-07T00:32:56.030Z,7.90
2022-08-07T00:35:23.491Z,7.55
2022-08-07T00:37:51.485Z,7.93
2022-08-07T00:40:39.339Z,7.23
2022-08-07T00:43:09.964Z,8.02
2022-08-07T00:45:38.291Z,7.65
2022-08-07T00:48:10.912Z,8.85
2022-08-07T00:50:46.688Z,8.85
2022-08-07T00:53:20.155Z,8.17
2022-08-07T00:56:02.331Z,8.40
2022-08-07T00:58:32.518Z,8.80
2022-08-07T01:01:00.498Z,9.68
2022-08-07T01:03:55.359Z,9.73
2022-08-07T01:06:17.649Z,10.83
2022-08-07T01:08:51.571Z,8.95
2022-08-07T01:12:09.224Z,8.00
2022-08-07T01:14:09.138Z,9.30
2022-08-07T01:16:36.815Z,12.10
2022-08-07T01:19:18.155Z,10.17
2022-08-07T01:21:47.823Z,9.65
2022-08-07T01:24:18.736Z,12.50
2022-08-07T01:26:51.962Z,11.40
2022-08-07T01:29:20.213Z,12.18
2022-08-07T01:31:50.121Z,13.43
2022-08-07T01:34:19.032Z,12.70
2022-08-07T01:36:52.490Z,13.95
2022-08-07T01:39:25.236Z,12.30
2022-08-07T01:42:37.696Z,13.32
2022-08-07T01:44:55.035Z,13.17
2022-08-07T01:48:18.320Z,10.27
2022-08-07T01:50:10.710Z,12.50
2022-08-07T01:52:49.575Z,13.18
2022-08-07T01:55:24.229Z,14.40
2022-08-07T01:58:06.112Z,14.97
2022-08-07T02:00:49.110Z,13.88
2022-08-07T02:03:26.395Z,13.73
2022-08-07T02:06:02.134Z,13.70
2022-08-07T02:08:31.503Z,12.30
2022-08-07T02:10:59.626Z,12.13
2022-08-07T02:13:58.277Z,13.65
2022-08-07T02:16:16.049Z,13.45
2022-08-07T02:18:47.125Z,13.45
2022-08-07T02:21:16.655Z,13.93
2022-08-07T02:23:46.009Z,12.80
2022-08-07T02:26:32.676Z,12.23
2022-08-07T02:29:02.153Z,14.70
2022-08-07T02:31:30.400Z,14.07
2022-08-07T02:34:04.142Z,12.75
2022-08-07T02:36:39.678Z,13.73
2022-08-07T02:39:17.014Z,14.25
2022-08-07T02:41:54.560Z,12.27
2022-08-07T02:44:23.641Z,13.23
2022-08-07T02:46:55.566Z,14.32
2022-08-07T02:49:56.130Z,12.70
2022-08-07T02:52:13.082Z,12.57
2022-08-07T02:54:43.718Z,13.50
2022-08-07T02:57:13.575Z,12.88
2022-08-07T02:59:45.387Z,13.98
2022-08-07T03:02:23.537Z,14.87
2022-08-07T03:04:54.372Z,14.20
2022-08-07T03:07:43.211Z,14.70
2022-08-07T03:10:11.911Z,13.77
2022-08-07T03:12:42.596Z,13.63
2022-08-07T03:15:12.094Z,14.00
2022-08-07T03:17:54.028Z,14.07
2022-08-07T03:20:22.016Z,12.52
2022-08-07T03:22:49.963Z,12.93
2022-08-07T03:25:21.071Z,13.30
2022-08-07T03:27:59.191Z,13.47
2022-08-07T03:30:36.739Z,13.07
2022-08-07T03:33:07.933Z,12.35
2022-08-07T03:35:44.017Z,14.55
2022-08-07T03:38:21.270Z,15.07
2022-08-07T03:40:53.859Z,13.13
2022-08-07T03:43:26.618Z,14.88
2022-08-07T03:46:00.390Z,14.52
2022-08-07T03:48:30.560Z,14.65
2022-08-07T03:50:58.368Z,14.18
2022-08-07T03:53:50.048Z,13.63
2022-08-07T03:56:17.251Z,14.00
2022-08-07T03:59:08.039Z,14.25
2022-08-07T04:01:43.192Z,14.02
2022-08-07T04:04:17.484Z,14.68
2022-08-07T04:06:45.293Z,15.90
2022-08-07T04:09:15.758Z,16.10
2022-08-07T04:12:27.252Z,13.68
2022-08-07T04:14:38.510Z,15.13
2022-08-07T04:17:19.868Z,14.88
2022-08-07T04:19:52.154Z,13.93
2022-08-07T04:22:23.187Z,12.98
2022-08-07T04:24:51.513Z,14.70
2022-08-07T04:27:38.130Z,14.13
2022-08-07T04:30:21.025Z,14.85
2022-08-07T04:32:58.168Z,15.17
2022-08-07T04:35:26.225Z,15.48
2022-08-07T04:38:03.229Z,16.45
2022-08-07T04:40:34.574Z,14.00
2022-08-07T04:43:05.977Z,16.10
2022-08-07T04:45:52.246Z,16.60
2022-08-07T04:48:31.225Z,16.48
2022-08-07T04:51:03.602Z,15.18
2022-08-07T04:54:01.918Z,14.65
2022-08-07T04:58:10.817Z,13.60
2022-08-07T05:00:11.678Z,14.83
2022-08-07T05:02:07.350Z,15.20
2022-08-07T05:04:47.062Z,15.02
2022-08-07T05:07:21.034Z,15.52
2022-08-07T05:09:57.205Z,16.52
2022-08-07T05:12:30.470Z,17.57
2022-08-07T05:15:04.711Z,15.93
2022-08-07T05:17:52.529Z,16.27
2022-08-07T05:20:25.006Z,13.57
2022-08-07T05:22:55.723Z,15.40
2022-08-07T05:25:26.307Z,16.02
2022-08-07T05:28:20.675Z,15.90
2022-08-07T05:30:52.579Z,17.65
2022-08-07T05:33:21.461Z,21.23
2022-08-07T05:35:49.789Z,16.45
2022-08-07T05:39:00.109Z,15.60
2022-08-07T05:41:14.001Z,16.40
2022-08-07T05:44:07.809Z,20.02
2022-08-07T05:46:37.209Z,22.10
2022-08-07T05:49:11.764Z,19.70
2022-08-07T05:51:40.729Z,22.80
2022-08-07T05:54:30.034Z,16.73
2022-08-07T05:56:57.879Z,17.50
2022-08-07T05:59:27.539Z,16.50
2022-08-07T06:01:58.042Z,15.43
2022-08-07T06:04:30.180Z,13.20
2022-08-07T06:07:03.727Z,11.70
2022-08-07T06:09:56.640Z,9.98
2022-08-07T06:12:21.042Z,9.35
2022-08-07T06:14:58.708Z,9.38
2022-08-07T06:17:38.169Z,8.68
2022-08-07T06:20:12.414Z,8.37
2022-08-07T06:23:02.341Z,7.50
2022-08-07T06:25:41.242Z,7.22
2022-08-07T06:28:28.053Z,7.03
2022-08-07T06:30:56.424Z,8.15
2022-08-07T06:33:27.393Z,8.30
2022-08-07T06:36:12.123Z,7.43
2022-08-07T06:38:58.716Z,7.75
2022-08-07T06:41:29.397Z,8.90
2022-08-07T06:44:16.888Z,8.98
2022-08-07T06:46:53.596Z,9.60
2022-08-07T06:49:35.386Z,10.48
2022-08-07T06:52:19.058Z,10.30
2022-08-07T06:55:31.840Z,11.05
2022-08-07T06:57:52.121Z,11.18
2022-08-07T07:00:22.371Z,11.17
2022-08-07T07:02:57.300Z,11.10
2022-08-07T07:06:04.789Z,10.20
2022-08-07T07:08:18.205Z,9.23
2022-08-07T07:10:56.701Z,9.13
2022-08-07T07:13:57.547Z,8.20
2022-08-07T07:16:19.813Z,8.02
2022-08-07T07:18:49.768Z,7.43
2022-08-07T07:21:21.667Z,8.85
2022-08-07T07:24:09.307Z,7.50
2022-08-07T07:26:40.600Z,8.30
2022-08-07T07:29:55.756Z,6.90
2022-08-07T07:32:02.439Z,4.65
2022-08-07T07:34:32.121Z,4.68
2022-08-07T07:37:14.520Z,6.32
2022-08-07T07:39:54.925Z,6.53
2022-08-07T07:42:32.538Z,5.75
2022-08-07T07:45:00.841Z,5.78
2022-08-07T07:47:29.378Z,6.50
2022-08-07T07:50:36.106Z,5.68
2022-08-07T07:52:47.162Z,6.90
2022-08-07T07:55:15.536Z,5.82
2022-08-07T07:57:53.599Z,6.20
2022-08-07T08:00:29.675Z,6.15
2022-08-07T08:03:05.898Z,6.57
2022-08-07T08:05:53.602Z,5.77
2022-08-07T08:08:34.624Z,5.85
2022-08-07T08:11:04.646Z,7.18
2022-08-07T08:13:33.239Z,7.07
2022-08-07T08:16:05.755Z,5.80
2022-08-07T08:18:33.688Z,6.00
2022-08-07T08:21:04.306Z,5.00
2022-08-07T08:23:54.567Z,5.28
2022-08-07T08:26:50.384Z,5.70
2022-08-07T08:29:18.741Z,5.90
2022-08-07T08:32:16.882Z,5.70
2022-08-07T08:34:38.040Z,5.53
2022-08-07T08:37:09.700Z,4.93
2022-08-07T08:39:54.959Z,5.55
2022-08-07T08:42:28.061Z,5.13
2022-08-07T08:45:00.313Z,5.37
2022-08-07T08:47:51.830Z,5.05
2022-08-07T08:50:34.823Z,5.63
2022-08-07T08:53:10.604Z,6.78
2022-08-07T08:55:54.559Z,5.72
2022-08-07T08:58:30.744Z,5.00
2022-08-07T09:01:01.478Z,5.17
2022-08-07T09:03:47.629Z,6.28
2022-08-07T09:06:21.273Z,4.95
2022-08-07T09:08:55.479Z,5.05
2022-08-07T09:11:43.402Z,4.63
2022-08-07T09:14:20.509Z,4.60
2022-08-07T09:16:58.797Z,4.30
2022-08-07T09:19:53.180Z,5.70
2022-08-07T09:24:28.390Z,4.65
2022-08-07T09:25:27.452Z,4.00
2022-08-07T09:28:03.132Z,5.20
2022-08-07T09:30:34.086Z,4.43
2022-08-07T09:33:16.282Z,5.35
2022-08-07T09:36:02.738Z,3.85
2022-08-07T09:38:37.950Z,4.70
2022-08-07T09:41:08.998Z,3.80
2022-08-07T09:44:05.453Z,3.80
2022-08-07T09:47:52.330Z,7.72
2022-08-07T09:50:01.739Z,4.25
2022-08-07T09:52:34.560Z,4.90
2022-08-07T09:55:16.964Z,5.13
2022-08-07T09:58:03.441Z,6.20
2022-08-07T10:00:35.487Z,5.38
2022-08-07T10:04:03.894Z,6.03
2022-08-07T10:06:28.280Z,4.50
2022-08-07T10:09:10.620Z,6.20
2022-08-07T10:12:01.394Z,5.00
2022-08-07T10:14:42.467Z,5.18
2022-08-07T10:17:27.401Z,6.68
2022-08-07T10:20:12.893Z,7.20
2022-08-07T10:22:51.062Z,4.77
2022-08-07T10:25:42.527Z,4.60
2022-08-07T10:28:23.836Z,4.07
2022-08-07T10:30:58.743Z,3.35
2022-08-07T10:34:05.689Z,3.60
2022-08-07T10:36:30.223Z,5.40
2022-08-07T10:39:06.242Z,2.83
2022-08-07T10:41:52.063Z,3.03
2022-08-07T10:44:37.930Z,4.60
2022-08-07T10:47:26.644Z,3.70
2022-08-07T10:50:03.726Z,4.73
2022-08-07T10:52:36.039Z,4.25
2022-08-07T10:55:26.846Z,3.50
2022-08-07T10:58:06.539Z,3.35
2022-08-07T11:00:50.626Z,3.70
2022-08-07T11:03:37.400Z,2.70
2022-08-07T11:06:15.746Z,3.92
2022-08-07T11:08:53.604Z,3.15
2022-08-07T11:11:24.299Z,3.88
2022-08-07T11:14:43.990Z,2.78
2022-08-07T11:16:49.363Z,3.00
2022-08-07T11:19:21.719Z,3.42
2022-08-07T11:22:02.112Z,3.08
2022-08-07T11:24:34.553Z,3.33
2022-08-07T11:27:04.578Z,4.28
2022-08-07T11:29:42.669Z,5.13
2022-08-07T11:32:25.769Z,3.90
2022-08-07T11:34:56.559Z,5.50
2022-08-07T11:37:57.451Z,4.18
2022-08-07T11:40:28.283Z,3.50
2022-08-07T11:42:59.754Z,5.70
2022-08-07T11:45:36.057Z,4.72
2022-08-07T11:48:29.835Z,5.60
2022-08-07T11:51:09.014Z,5.03
2022-08-07T11:54:00.715Z,4.65
2022-08-07T11:56:37.821Z,4.93
2022-08-07T12:00:09.955Z,5.55
2022-08-07T12:02:03.964Z,3.80
2022-08-07T12:04:56.503Z,4.55
2022-08-07T12:07:27.606Z,4.95
2022-08-07T12:10:13.835Z,5.80
2022-08-07T12:12:43.544Z,5.65
2022-08-07T12:15:35.464Z,4.20
2022-08-07T12:18:11.420Z,5.65
2022-08-07T12:20:44.277Z,4.72
2022-08-07T12:24:06.652Z,4.37
2022-08-07T12:26:35.479Z,3.97
2022-08-07T12:29:09.908Z,5.03
2022-08-07T12:32:01.986Z,5.10
2022-08-07T12:34:30.544Z,4.88
2022-08-07T12:36:58.972Z,4.03
2022-08-07T12:39:43.239Z,5.55
2022-08-07T12:42:14.138Z,5.40
2022-08-07T12:44:45.558Z,5.68
2022-08-07T12:47:21.362Z,6.50
2022-08-07T12:50:04.584Z,5.60
2022-08-07T12:52:38.112Z,4.93
2022-08-07T12:55:16.585Z,4.85
2022-08-07T12:58:00.617Z,7.00
2022-08-07T13:00:34.691Z,4.53
2022-08-07T13:03:13.058Z,5.33
2022-08-07T13:06:04.855Z,4.32
2022-08-07T13:08:50.674Z,4.93
2022-08-07T13:12:02.253Z,4.43
2022-08-07T13:14:30.168Z,3.85
2022-08-07T13:17:02.409Z,5.73
2022-08-07T13:19:45.808Z,4.97
2022-08-07T13:22:28.025Z,5.43
2022-08-07T13:25:00.195Z,5.28
2022-08-07T13:28:05.802Z,5.82
2022-08-07T13:30:41.234Z,4.97
2022-08-07T13:34:31.381Z,6.13
2022-08-07T13:36:00.269Z,5.13
2022-08-07T13:38:32.793Z,4.20
2022-08-07T13:41:06.329Z,4.00
2022-08-07T13:43:42.230Z,5.20
2022-08-07T13:46:25.483Z,5.50
2022-08-07T13:49:00.378Z,4.40
2022-08-07T13:52:16.470Z,4.35
2022-08-07T13:54:23.754Z,5.65
2022-08-07T13:56:56.041Z,5.47
2022-08-07T13:59:31.191Z,4.13
2022-08-07T14:02:13.145Z,4.35
2022-08-07T14:04:50.270Z,4.45
2022-08-07T14:07:23.649Z,7.03
2022-08-07T14:10:01.229Z,4.93
2022-08-07T14:12:36.299Z,5.80
2022-08-07T14:15:11.024Z,5.68
2022-08-07T14:18:23.662Z,4.15
2022-08-07T14:20:43.014Z,4.70
2022-08-07T14:23:31.231Z,5.38
2022-08-07T14:26:28.125Z,5.90
2022-08-07T14:29:06.021Z,4.95
2022-08-07T14:31:56.444Z,5.60
2022-08-07T14:34:29.922Z,6.20
2022-08-07T14:37:02.942Z,6.03
2022-08-07T14:40:17.598Z,6.50
2022-08-07T14:42:24.259Z,6.20
2022-08-07T14:44:53.928Z,5.63
2022-08-07T14:47:34.559Z,7.75
2022-08-07T14:50:06.511Z,6.57
2022-08-07T14:52:39.705Z,6.87
2022-08-07T14:55:09.014Z,6.47
2022-08-07T14:57:58.739Z,7.05
2022-08-07T15:03:19.393Z,6.28
2022-08-07T15:05:54.155Z,5.73
2022-08-07T15:08:32.330Z,5.05
2022-08-07T15:11:02.264Z,5.13
2022-08-07T15:13:37.185Z,5.70
2022-08-07T15:16:11.052Z,6.10
2022-08-07T15:18:41.903Z,5.80
2022-08-07T15:21:58.866Z,5.18
2022-08-07T15:27:07.495Z,6.90
2022-08-07T15:30:10.224Z,7.82
2022-08-07T15:32:39.712Z,6.00
2022-08-07T15:35:16.758Z,7.07
2022-08-07T15:38:18.314Z,6.80
2022-08-07T15:40:38.771Z,6.05
2022-08-07T15:43:53.116Z,5.57
2022-08-07T15:46:32.360Z,5.90
2022-08-07T15:54:27.368Z,6.45
2022-08-07T15:56:57.522Z,8.18
2022-08-07T15:59:39.272Z,8.47
2022-08-07T16:02:08.736Z,6.15
2022-08-07T16:04:38.996Z,6.10
2022-08-07T16:08:30.325Z,6.50
2022-08-07T16:10:00.655Z,5.10
2022-08-07T16:12:34.213Z,8.80
2022-08-07T16:15:55.598Z,7.13
2022-08-07T16:18:08.271Z,5.80
2022-08-07T16:21:44.003Z,5.63
2022-08-07T16:23:58.500Z,6.97
2022-08-07T16:26:35.778Z,6.07
2022-08-07T16:29:18.872Z,6.90
2022-08-07T16:32:32.965Z,6.65
2022-08-07T16:34:57.786Z,5.78
2022-08-07T16:38:05.673Z,5.90
2022-08-07T16:40:57.118Z,7.57
2022-08-07T16:44:02.785Z,6.78
2022-08-07T16:47:08.785Z,6.32
2022-08-07T16:50:28.561Z,6.07
2022-08-07T16:52:59.789Z,6.30
2022-08-07T16:55:47.216Z,8.10
2022-08-07T16:58:22.744Z,8.15
2022-08-07T17:01:01.699Z,7.75
2022-08-07T17:03:59.429Z,6.63
2022-08-07T17:06:44.594Z,8.60
2022-08-07T17:10:05.063Z,6.60
2022-08-07T17:12:33.833Z,7.57
2022-08-07T17:14:57.259Z,8.73
2022-08-07T17:17:45.940Z,6.78
2022-08-07T17:20:21.678Z,5.50
2022-08-07T17:22:53.673Z,7.53
2022-08-07T17:25:47.176Z,6.35
2022-08-07T17:28:19.664Z,6.35
2022-08-07T17:30:58.320Z,7.10
2022-08-07T17:34:08.846Z,8.18
2022-08-07T17:36:20.907Z,8.87
2022-08-07T17:38:55.991Z,6.68
2022-08-07T17:42:03.934Z,6.30
2022-08-07T17:44:33.804Z,6.75
2022-08-07T17:47:17.040Z,6.60
2022-08-07T17:49:54.283Z,6.03
2022-08-07T17:52:30.587Z,6.38
2022-08-07T17:55:04.574Z,6.35
2022-08-07T17:57:56.271Z,7.20
2022-08-07T18:00:32.894Z,5.63
2022-08-07T18:03:09.576Z,9.97
2022-08-07T18:06:02.691Z,6.32
2022-08-07T18:09:01.483Z,6.47
2022-08-07T18:12:17.439Z,6.05
2022-08-07T18:14:24.668Z,7.03
2022-08-07T18:16:57.891Z,6.30
2022-08-07T18:21:11.870Z,6.53
2022-08-07T18:22:26.351Z,7.22
2022-08-07T18:25:01.368Z,7.00
2022-08-07T18:27:45.956Z,5.57
2022-08-07T18:30:32.563Z,7.83
2022-08-07T18:33:17.283Z,6.57
2022-08-07T18:35:53.612Z,6.50
2022-08-07T18:38:56.383Z,6.28
2022-08-07T18:41:20.756Z,6.82
2022-08-07T18:43:57.570Z,7.83
2022-08-07T18:46:28.953Z,5.90
2022-08-07T18:50:05.665Z,8.10
2022-08-07T18:52:33.742Z,6.13
2022-08-07T18:54:50.924Z,8.38
2022-08-07T18:57:40.387Z,6.70
2022-08-07T19:00:34.060Z,6.72
2022-08-07T19:03:01.453Z,6.28
2022-08-07T19:06:03.781Z,9.20
2022-08-07T19:08:23.719Z,7.07
2022-08-07T19:10:56.292Z,7.07
2022-08-07T19:13:26.515Z,8.63
2022-08-07T19:16:05.677Z,9.10
2022-08-07T19:18:49.387Z,8.75
2022-08-07T19:21:46.479Z,7.47
2022-08-07T19:24:30.110Z,8.70
2022-08-07T19:28:30.084Z,8.23
2022-08-07T19:31:00.911Z,8.43
2022-08-07T19:32:45.440Z,6.75
2022-08-07T19:35:15.188Z,8.57
2022-08-07T19:37:57.048Z,8.00
2022-08-07T19:40:31.266Z,9.10
2022-08-07T19:43:02.634Z,10.77
2022-08-07T19:46:07.968Z,8.80
2022-08-07T19:48:24.104Z,9.50
2022-08-07T19:50:54.488Z,9.43
2022-08-07T19:54:31.591Z,9.52
2022-08-07T19:58:01.451Z,7.70
2022-08-07T19:59:04.971Z,8.35
2022-08-07T20:01:52.229Z,10.07
2022-08-07T20:04:30.950Z,8.97
2022-08-07T20:07:02.173Z,7.88
2022-08-07T20:10:35.275Z,9.65
2022-08-07T20:12:31.559Z,6.95
2022-08-07T20:15:04.395Z,9.82
2022-08-07T20:17:38.839Z,6.80
2022-08-07T20:20:08.439Z,6.97
2022-08-07T20:22:40.758Z,7.32
2022-08-07T20:25:19.287Z,7.47
2022-08-07T20:27:58.372Z,8.68
2022-08-07T20:30:32.481Z,12.80
2022-08-07T20:33:00.898Z,9.57
2022-08-07T20:35:33.541Z,9.88
2022-08-07T20:38:02.243Z,10.23
2022-08-07T20:40:32.077Z,10.35
2022-08-07T20:43:01.368Z,8.32
2022-08-07T20:46:26.612Z,7.03
2022-08-07T20:48:29.979Z,12.63
2022-08-07T20:51:01.851Z,9.00
2022-08-07T20:54:03.286Z,6.85
2022-08-07T20:56:26.146Z,7.13
2022-08-07T20:58:58.584Z,9.10
2022-08-07T21:01:29.756Z,7.80
2022-08-07T21:04:21.881Z,7.55
2022-08-07T21:06:53.614Z,8.93
2022-08-07T21:09:27.833Z,7.55
2022-08-07T21:11:57.581Z,7.13
2022-08-07T21:14:31.963Z,8.25
2022-08-07T21:18:02.877Z,9.68
2022-08-07T21:20:05.161Z,8.05
2022-08-07T21:22:33.913Z,7.05
2022-08-07T21:25:12.289Z,8.33
2022-08-07T21:27:47.697Z,9.38
2022-08-07T21:30:23.741Z,8.18
2022-08-07T21:32:56.569Z,9.15
2022-08-07T21:35:34.572Z,9.55
2022-08-07T21:38:21.578Z,9.17
2022-08-07T21:41:00.399Z,8.15
2022-08-07T21:43:36.679Z,8.18
2022-08-07T21:46:31.288Z,8.52
2022-08-07T21:49:15.169Z,10.43
2022-08-07T21:51:54.538Z,10.07
2022-08-07T21:54:26.948Z,8.30
2022-08-07T21:57:03.029Z,8.63
2022-08-07T22:00:03.097Z,10.18
2022-08-07T22:02:24.363Z,8.57
2022-08-07T22:04:56.046Z,8.30
2022-08-07T22:07:57.848Z,7.95
2022-08-07T22:10:17.202Z,8.80
2022-08-07T22:12:46.580Z,8.02
2022-08-07T22:16:42.711Z,8.88
2022-08-07T22:18:04.796Z,7.23
2022-08-07T22:20:42.761Z,8.75
2022-08-07T22:23:18.164Z,7.75
2022-08-07T22:25:57.607Z,8.25
2022-08-07T22:28:30.806Z,10.02
2022-08-07T22:31:05.316Z,9.37
2022-08-07T22:33:52.584Z,9.00
2022-08-07T22:36:27.816Z,7.15
2022-08-07T22:38:59.838Z,9.18
2022-08-07T22:42:03.447Z,9.10
2022-08-07T22:44:22.269Z,8.83
2022-08-07T22:47:16.981Z,8.13
2022-08-07T22:49:58.325Z,8.38
2022-08-07T22:52:39.728Z,11.10
2022-08-07T22:55:30.039Z,8.60
2022-08-07T22:58:21.776Z,8.93
2022-08-07T23:00:58.915Z,7.88
2022-08-07T23:03:58.014Z,7.75
2022-08-07T23:06:35.300Z,10.45
2022-08-07T23:10:03.536Z,8.15
2022-08-07T23:12:07.347Z,9.87
2022-08-07T23:14:38.806Z,8.48
2022-08-07T23:17:20.145Z,9.52
2022-08-07T23:20:08.820Z,7.53
2022-08-07T23:22:42.124Z,8.88
2022-08-07T23:25:17.424Z,8.90
2022-08-07T23:28:21.280Z,10.57
2022-08-07T23:31:05.528Z,9.65
2022-08-07T23:34:34.106Z,8.68
2022-08-07T23:36:37.435Z,8.10
2022-08-07T23:39:08.660Z,8.37
2022-08-07T23:42:04.514Z,8.75
2022-08-07T23:44:54.281Z,7.85
2022-08-07T23:47:31.478Z,8.40
2022-08-07T23:50:41.532Z,9.43
2022-08-07T23:53:22.954Z,8.50
2022-08-07T23:56:15.524Z,8.18
2022-08-07T23:58:54.903Z,9.35
